createdAt,value
2017-11-10T00:01:27.182Z,89.75
2017-11-10T00:03:54.672Z,90.05
2017-11-10T00:06:22.063Z,90.49
2017-11-10T00:08:49.496Z,90.16
2017-11-10T00:11:16.936Z,89.80
2017-11-10T00:13:44.323Z,90.04
2017-11-10T00:16:11.727Z,89.47
2017-11-10T00:18:39.218Z,88.77
2017-11-10T00:21:06.599Z,88.57
2017-11-10T00:23:34.029Z,88.52
2017-11-10T00:26:01.423Z,88.34
2017-11-10T00:28:28.912Z,88.61
2017-11-10T00:30:56.312Z,88.64
2017-11-10T00:33:23.707Z,88.26
2017-11-10T00:35:51.107Z,88.73
2017-11-10T00:38:18.565Z,88.52
2017-11-10T00:40:45.993Z,88.31
2017-11-10T00:43:13.388Z,89.03
2017-11-10T00:45:40.832Z,89.00
2017-11-10T00:48:08.227Z,89.40
2017-11-10T00:50:35.627Z,89.12
2017-11-10T00:53:03.096Z,88.77
2017-11-10T00:55:30.551Z,88.54
2017-11-10T00:57:57.952Z,88.47
2017-11-10T01:00:25.348Z,88.29
2017-11-10T01:02:52.824Z,87.84
2017-11-10T01:05:20.217Z,87.67
2017-11-10T01:07:47.622Z,87.97
2017-11-10T01:10:15.015Z,88.09
2017-11-10T01:12:42.426Z,87.95
2017-11-10T01:15:09.859Z,88.09
2017-11-10T01:17:37.315Z,87.28
2017-11-10T01:20:04.703Z,87.41
2017-11-10T01:22:32.109Z,87.83
2017-11-10T01:24:59.504Z,88.46
2017-11-10T01:27:26.903Z,88.72
2017-11-10T01:29:54.300Z,88.17
2017-11-10T01:32:21.713Z,88.11
2017-11-10T01:34:49.203Z,87.85
2017-11-10T01:37:16.604Z,87.92
2017-11-10T01:39:44.003Z,87.87
2017-11-10T01:42:11.408Z,88.45
2017-11-10T01:44:38.839Z,88.45
2017-11-10T01:47:06.241Z,89.12
2017-11-10T01:49:33.735Z,88.71
2017-11-10T01:52:01.153Z,88.45
2017-11-10T01:54:28.557Z,87.73
2017-11-10T01:56:55.948Z,87.80
2017-11-10T01:59:23.348Z,87.80
2017-11-10T02:01:50.739Z,88.53
2017-11-10T02:04:18.167Z,87.64
2017-11-10T02:06:45.555Z,87.24
2017-11-10T02:09:12.962Z,86.43
2017-11-10T02:11:40.367Z,86.19
2017-11-10T02:14:07.767Z,86.82
2017-11-10T02:16:35.247Z,86.84
2017-11-10T02:19:02.647Z,86.31
2017-11-10T02:21:30.073Z,87.07
2017-11-10T02:23:57.481Z,86.94
2017-11-10T02:26:24.865Z,87.11
2017-11-10T02:28:52.284Z,87.13
2017-11-10T02:31:19.680Z,87.20
2017-11-10T02:33:47.081Z,86.95
2017-11-10T02:36:14.475Z,86.71
2017-11-10T02:38:41.947Z,86.90
2017-11-10T02:41:09.351Z,87.12
2017-11-10T02:43:36.731Z,87.19
2017-11-10T02:46:04.132Z,87.57
2017-11-10T02:48:31.527Z,87.08
2017-11-10T02:50:59.041Z,87.41
2017-11-10T02:53:26.464Z,87.02
2017-11-10T02:55:53.867Z,87.37
2017-11-10T02:58:21.295Z,87.44
2017-11-10T03:00:48.751Z,87.96
2017-11-10T03:03:16.201Z,87.80
2017-11-10T03:05:43.605Z,88.01
2017-11-10T03:08:10.991Z,87.80
2017-11-10T03:10:38.392Z,87.79
2017-11-10T03:13:05.791Z,87.66
2017-11-10T03:15:33.180Z,87.62
2017-11-10T03:18:00.639Z,87.41
2017-11-10T03:20:28.096Z,87.51
2017-11-10T03:22:55.520Z,87.88
2017-11-10T03:25:22.923Z,87.42
2017-11-10T03:27:50.327Z,87.55
2017-11-10T03:30:17.725Z,88.03
2017-11-10T03:32:45.117Z,87.26
2017-11-10T03:35:12.507Z,87.03
2017-11-10T03:37:39.976Z,86.80
2017-11-10T03:40:07.364Z,87.21
2017-11-10T03:42:34.792Z,87.29
2017-11-10T03:45:02.282Z,87.12
2017-11-10T03:47:29.727Z,87.06
2017-11-10T03:49:57.121Z,86.77
2017-11-10T03:52:24.517Z,86.85
2017-11-10T03:54:51.927Z,86.74
2017-11-10T03:57:19.303Z,86.22
2017-11-10T03:59:46.783Z,85.52
2017-11-10T04:02:14.240Z,86.16
2017-11-10T04:04:41.776Z,86.06
2017-11-10T04:07:09.172Z,86.52
2017-11-10T04:09:36.562Z,86.13
2017-11-10T04:12:03.968Z,86.10
2017-11-10T04:14:31.368Z,86.66
2017-11-10T04:16:58.780Z,86.89
2017-11-10T04:19:26.176Z,86.95
2017-11-10T04:21:53.574Z,87.43
2017-11-10T04:24:21.040Z,87.05
2017-11-10T04:26:48.427Z,86.54
2017-11-10T04:29:15.839Z,86.16
2017-11-10T04:31:43.223Z,85.81
2017-11-10T04:34:10.632Z,85.66
2017-11-10T04:36:38.021Z,85.14
2017-11-10T04:39:05.411Z,85.37
2017-11-10T04:41:32.823Z,85.21
2017-11-10T04:44:00.219Z,85.22
2017-11-10T04:46:27.618Z,84.86
2017-11-10T04:48:55.208Z,84.64
2017-11-10T04:51:22.583Z,85.49
2017-11-10T04:53:50.020Z,85.09
2017-11-10T04:56:17.403Z,84.95
2017-11-10T04:58:44.851Z,85.43
2017-11-10T05:01:12.256Z,85.78
2017-11-10T05:03:39.719Z,85.84
2017-11-10T05:06:07.113Z,85.57
2017-11-10T05:08:34.535Z,85.81
2017-11-10T05:11:01.931Z,86.31
2017-11-10T05:13:29.330Z,86.94
2017-11-10T05:15:56.803Z,87.54
2017-11-10T05:18:24.264Z,87.92
2017-11-10T05:20:51.711Z,87.59
2017-11-10T05:23:19.176Z,87.21
2017-11-10T05:25:46.570Z,86.64
2017-11-10T05:28:13.963Z,86.36
2017-11-10T05:30:41.358Z,86.16
2017-11-10T05:33:08.739Z,86.00
2017-11-10T05:35:36.144Z,85.50
2017-11-10T05:38:03.708Z,84.96
2017-11-10T05:40:31.109Z,85.64
2017-11-10T05:42:58.512Z,85.79
2017-11-10T05:45:25.925Z,86.28
2017-11-10T05:47:53.316Z,86.42
2017-11-10T05:50:20.712Z,86.14
2017-11-10T05:52:48.148Z,86.28
2017-11-10T05:55:15.544Z,86.60
2017-11-10T05:57:42.932Z,86.90
2017-11-10T06:00:10.340Z,87.65
2017-11-10T06:02:37.736Z,87.70
2017-11-10T06:05:05.148Z,87.61
2017-11-10T06:07:32.594Z,87.57
2017-11-10T06:09:59.960Z,87.91
2017-11-10T06:12:27.383Z,87.95
2017-11-10T06:14:54.857Z,88.34
2017-11-10T06:17:22.247Z,88.21
2017-11-10T06:19:49.648Z,88.26
2017-11-10T06:22:17.039Z,88.10
2017-11-10T06:24:44.460Z,88.73
2017-11-10T06:27:11.865Z,89.24
2017-11-10T06:29:39.271Z,89.40
2017-11-10T06:32:06.680Z,89.31
2017-11-10T06:34:34.071Z,89.09
2017-11-10T06:37:01.468Z,89.09
2017-11-10T06:39:28.888Z,89.51
2017-11-10T06:41:56.303Z,89.54
2017-11-10T06:44:23.804Z,89.33
2017-11-10T06:46:51.202Z,88.69
2017-11-10T06:49:18.621Z,88.85
2017-11-10T06:51:46.020Z,88.64
2017-11-10T06:54:13.433Z,88.84
2017-11-10T06:56:40.824Z,88.74
2017-11-10T06:59:08.220Z,89.00
2017-11-10T07:01:35.711Z,88.70
2017-11-10T07:04:03.108Z,88.82
2017-11-10T07:06:30.501Z,88.56
2017-11-10T07:08:57.891Z,88.97
2017-11-10T07:11:25.287Z,89.10
2017-11-10T07:13:52.772Z,89.21
2017-11-10T07:16:20.159Z,88.74
2017-11-10T07:18:47.594Z,88.08
2017-11-10T07:21:15.040Z,87.90
2017-11-10T07:23:42.437Z,88.56
2017-11-10T07:26:09.835Z,88.27
2017-11-10T07:28:37.328Z,88.15
2017-11-10T07:31:04.765Z,88.16
2017-11-10T07:33:32.163Z,88.52
2017-11-10T07:35:59.572Z,88.36
2017-11-10T07:38:27.031Z,88.74
2017-11-10T07:40:54.481Z,88.86
2017-11-10T07:43:21.896Z,88.34
2017-11-10T07:45:49.297Z,88.05
2017-11-10T07:48:16.685Z,88.22
2017-11-10T07:50:44.075Z,87.77
2017-11-10T07:53:11.563Z,87.82
2017-11-10T07:55:38.955Z,88.60
2017-11-10T07:58:06.343Z,89.15
2017-11-10T08:00:33.748Z,88.89
2017-11-10T08:03:01.135Z,88.43
2017-11-10T08:05:28.535Z,88.56
2017-11-10T08:07:56.003Z,88.24
2017-11-10T08:10:23.408Z,87.77
2017-11-10T08:12:50.792Z,87.84
2017-11-10T08:15:18.214Z,88.38
2017-11-10T08:17:45.605Z,88.34
2017-11-10T08:20:13.012Z,88.27
2017-11-10T08:22:40.397Z,88.45
2017-11-10T08:25:07.795Z,88.41
2017-11-10T08:27:35.287Z,88.42
2017-11-10T08:30:02.680Z,88.69
2017-11-10T08:32:30.076Z,89.23
2017-11-10T08:34:57.556Z,89.01
2017-11-10T08:37:25.019Z,88.54
2017-11-10T08:39:52.420Z,88.19
2017-11-10T08:42:19.800Z,88.74
2017-11-10T08:44:47.201Z,88.36
2017-11-10T08:47:14.595Z,87.90
2017-11-10T08:49:41.992Z,87.88
2017-11-10T08:52:09.448Z,88.44
2017-11-10T08:54:36.899Z,88.08
2017-11-10T08:57:04.293Z,89.08
2017-11-10T08:59:31.684Z,88.92
2017-11-10T09:01:59.084Z,89.01
2017-11-10T09:04:26.472Z,88.83
2017-11-10T09:06:53.871Z,89.18
2017-11-10T09:09:21.266Z,89.74
2017-11-10T09:11:48.674Z,89.37
2017-11-10T09:14:16.065Z,89.73
2017-11-10T09:16:43.456Z,89.22
2017-11-10T09:19:10.864Z,88.48
2017-11-10T09:21:38.260Z,87.90
2017-11-10T09:24:05.647Z,87.10
2017-11-10T09:26:33.048Z,87.11
2017-11-10T09:29:06.157Z,86.25
2017-11-10T09:31:39.195Z,86.67
2017-11-10T09:34:12.987Z,86.62
2017-11-10T09:39:52.021Z,86.21
2017-11-10T09:42:25.112Z,86.03
2017-11-10T09:44:55.232Z,85.98
2017-11-10T09:47:28.184Z,85.68
2017-11-10T09:50:01.355Z,85.44
2017-11-10T09:52:32.127Z,85.45
2017-11-10T09:58:06.112Z,85.83
2017-11-10T10:00:39.055Z,87.29
2017-11-10T10:03:16.348Z,88.01
2017-11-10T10:05:49.461Z,87.80
2017-11-10T10:08:30.707Z,87.74
2017-11-10T10:11:03.720Z,88.21
2017-11-10T10:13:33.185Z,88.12
2017-11-10T10:16:05.977Z,87.85
2017-11-10T10:21:54.544Z,87.44
2017-11-10T10:24:21.940Z,88.44
2017-11-10T10:26:49.333Z,89.06
2017-11-10T10:29:16.736Z,88.46
2017-11-10T10:31:44.131Z,88.68
2017-11-10T10:34:11.596Z,89.04
2017-11-10T10:36:38.993Z,88.99
2017-11-10T10:39:06.384Z,88.88
2017-11-10T10:41:33.779Z,89.58
2017-11-10T10:44:01.223Z,89.14
2017-11-10T10:46:28.659Z,88.41
2017-11-10T10:48:56.266Z,88.82
2017-11-10T10:51:23.661Z,88.95
2017-11-10T10:53:51.238Z,87.68
2017-11-10T10:56:18.717Z,86.86
2017-11-10T10:58:46.135Z,86.50
2017-11-10T11:01:13.568Z,86.82
2017-11-10T11:03:40.990Z,86.46
2017-11-10T11:06:08.445Z,86.04
2017-11-10T11:08:35.847Z,86.21
2017-11-10T11:11:03.247Z,85.64
2017-11-10T11:13:30.701Z,85.29
2017-11-10T11:15:58.129Z,85.27
2017-11-10T11:18:25.624Z,86.04
2017-11-10T11:20:53.011Z,85.27
2017-11-10T11:23:20.423Z,85.95
2017-11-10T11:25:47.904Z,85.16
2017-11-10T11:28:15.312Z,86.00
2017-11-10T11:30:42.815Z,87.33
2017-11-10T11:33:10.203Z,88.01
2017-11-10T11:35:37.596Z,87.47
2017-11-10T11:38:04.986Z,87.46
2017-11-10T11:40:32.487Z,87.90
2017-11-10T11:42:59.880Z,88.67
2017-11-10T11:45:27.277Z,89.72
2017-11-10T11:47:54.763Z,89.79
2017-11-10T11:50:22.159Z,89.86
2017-11-10T11:52:49.545Z,89.87
2017-11-10T11:55:16.944Z,88.80
2017-11-10T11:57:44.341Z,89.00
2017-11-10T12:00:11.744Z,87.92
2017-11-10T12:02:39.140Z,87.45
2017-11-10T12:07:47.460Z,86.94
2017-11-10T12:10:14.903Z,86.76
2017-11-10T12:12:42.301Z,86.82
2017-11-10T12:15:09.684Z,86.74
2017-11-10T12:17:37.140Z,87.25
2017-11-10T12:20:04.537Z,87.27
2017-11-10T12:22:31.929Z,87.29
2017-11-10T12:24:59.326Z,87.61
2017-11-10T12:27:26.728Z,87.91
2017-11-10T12:29:54.124Z,87.79
2017-11-10T12:32:21.530Z,87.71
2017-11-10T12:34:48.916Z,87.10
2017-11-10T12:37:16.334Z,86.51
2017-11-10T12:39:43.731Z,86.13
2017-11-10T12:42:11.216Z,85.70
2017-11-10T12:44:38.609Z,85.47
2017-11-10T12:47:06.004Z,85.58
2017-11-10T12:49:33.391Z,85.46
2017-11-10T12:52:00.792Z,85.64
2017-11-10T12:54:28.270Z,85.82
2017-11-10T12:56:55.676Z,85.96
2017-11-10T12:59:23.072Z,85.45
2017-11-10T13:01:50.463Z,85.50
2017-11-10T13:04:17.865Z,85.53
2017-11-10T13:06:45.247Z,86.15
2017-11-10T13:09:12.760Z,86.33
2017-11-10T13:11:40.154Z,86.03
2017-11-10T13:14:07.540Z,86.67
2017-11-10T13:16:34.941Z,86.26
2017-11-10T13:19:02.339Z,86.35
2017-11-10T13:21:29.815Z,86.62
2017-11-10T13:23:57.209Z,86.55
2017-11-10T13:26:24.603Z,86.65
2017-11-10T13:28:51.993Z,86.57
2017-11-10T13:31:19.391Z,86.40
2017-11-10T13:33:46.799Z,86.13
2017-11-10T13:36:14.256Z,86.27
2017-11-10T13:38:41.644Z,86.42
2017-11-10T13:41:09.067Z,86.19
2017-11-10T13:43:36.524Z,86.13
2017-11-10T13:46:03.916Z,82.13
2017-11-10T13:48:31.329Z,82.41
2017-11-10T13:50:58.741Z,85.83
2017-11-10T13:53:26.147Z,86.59
2017-11-10T13:55:53.516Z,87.75
2017-11-10T13:58:20.960Z,88.12
2017-11-10T14:00:48.344Z,88.28
2017-11-10T14:03:15.731Z,87.77
2017-11-10T14:05:43.101Z,87.08
2017-11-10T14:08:10.502Z,86.57
2017-11-10T14:10:37.941Z,87.15
2017-11-10T14:13:05.320Z,87.45
2017-11-10T14:15:32.702Z,86.95
2017-11-10T14:18:00.101Z,86.86
2017-11-10T14:20:27.478Z,86.34
2017-11-10T14:22:54.867Z,85.22
2017-11-10T14:25:22.248Z,85.48
2017-11-10T14:27:49.660Z,85.33
2017-11-10T14:30:17.044Z,86.11
2017-11-10T14:32:44.422Z,85.71
2017-11-10T14:35:11.791Z,85.36
2017-11-10T14:37:39.284Z,85.20
2017-11-10T14:40:06.660Z,85.76
2017-11-10T14:42:34.111Z,85.95
2017-11-10T14:45:01.477Z,85.15
2017-11-10T14:47:28.856Z,84.47
2017-11-10T14:49:56.236Z,84.42
2017-11-10T14:52:23.617Z,84.30
2017-11-10T14:54:51.001Z,84.55
2017-11-10T14:57:18.401Z,84.72
2017-11-10T14:59:45.881Z,84.90
2017-11-10T15:02:13.259Z,85.18
2017-11-10T15:04:40.682Z,85.43
2017-11-10T15:07:08.141Z,85.65
2017-11-10T15:09:35.604Z,86.35
2017-11-10T15:12:02.972Z,86.06
2017-11-10T15:14:30.360Z,86.15
2017-11-10T15:16:57.737Z,85.92
2017-11-10T15:19:25.119Z,86.19
2017-11-10T15:21:52.507Z,86.14
2017-11-10T15:24:19.888Z,85.91
2017-11-10T15:26:47.268Z,85.99
2017-11-10T15:29:14.656Z,86.31
2017-11-10T15:31:42.046Z,86.05
2017-11-10T15:34:09.429Z,86.02
2017-11-10T15:36:36.898Z,85.61
2017-11-10T15:39:04.284Z,85.61
2017-11-10T15:41:31.711Z,86.09
2017-11-10T15:43:59.104Z,86.47
2017-11-10T15:46:26.857Z,86.09
2017-11-10T15:48:54.287Z,86.71
2017-11-10T15:51:21.671Z,86.77
2017-11-10T15:53:49.059Z,86.78
2017-11-10T15:56:16.551Z,86.89
2017-11-10T15:58:44.032Z,87.19
2017-11-10T16:01:11.420Z,87.77
2017-11-10T16:03:38.806Z,87.63
2017-11-10T16:06:06.222Z,87.79
2017-11-10T16:08:33.632Z,87.72
2017-11-10T16:11:01.089Z,87.37
2017-11-10T16:13:28.539Z,87.58
2017-11-10T16:15:55.994Z,87.63
2017-11-10T16:18:23.386Z,87.53
2017-11-10T16:20:50.778Z,86.88
2017-11-10T16:23:18.277Z,87.33
2017-11-10T16:25:45.728Z,86.11
2017-11-10T16:28:13.118Z,85.21
2017-11-10T16:30:40.516Z,84.25
2017-11-10T16:33:07.900Z,84.63
2017-11-10T16:35:35.337Z,83.86
2017-11-10T16:38:02.745Z,82.91
2017-11-10T16:40:30.131Z,83.24
2017-11-10T16:42:57.571Z,83.21
2017-11-10T16:45:24.948Z,82.87
2017-11-10T16:47:52.339Z,82.23
2017-11-10T16:50:19.712Z,81.99
2017-11-10T16:52:47.229Z,81.72
2017-11-10T16:55:14.676Z,81.52
2017-11-10T16:57:42.065Z,81.73
2017-11-10T17:00:09.447Z,82.14
2017-11-10T17:02:36.929Z,82.78
2017-11-10T17:05:04.316Z,83.81
2017-11-10T17:07:31.702Z,83.78
2017-11-10T17:09:59.091Z,83.93
2017-11-10T17:12:26.480Z,84.66
2017-11-10T17:14:53.864Z,85.35
2017-11-10T17:17:21.357Z,85.70
2017-11-10T17:19:48.741Z,85.63
2017-11-10T17:22:16.134Z,86.24
2017-11-10T17:24:43.533Z,86.09
2017-11-10T17:27:10.923Z,85.46
2017-11-10T17:29:38.311Z,85.08
2017-11-10T17:32:05.715Z,84.14
2017-11-10T17:34:33.140Z,83.98
2017-11-10T17:37:00.580Z,83.95
2017-11-10T17:39:27.968Z,84.30
2017-11-10T17:41:55.400Z,84.10
2017-11-10T17:44:22.855Z,83.84
2017-11-10T17:46:50.244Z,84.07
2017-11-10T17:49:17.677Z,83.44
2017-11-10T17:51:45.052Z,83.09
2017-11-10T17:54:12.448Z,81.33
2017-11-10T17:56:39.828Z,81.72
2017-11-10T17:59:07.216Z,81.05
2017-11-10T18:01:34.595Z,80.99
2017-11-10T18:04:02.007Z,81.09
2017-11-10T18:06:29.461Z,81.00
2017-11-10T18:08:56.925Z,81.90
2017-11-10T18:11:24.362Z,82.51
2017-11-10T18:13:51.704Z,83.49
2017-11-10T18:16:19.100Z,84.50
2017-11-10T18:18:46.508Z,84.80
2017-11-10T18:21:13.995Z,85.65
2017-11-10T18:23:41.448Z,85.61
2017-11-10T18:26:08.909Z,86.17
2017-11-10T18:28:36.288Z,86.57
2017-11-10T18:31:03.715Z,86.33
2017-11-10T18:33:31.100Z,85.69
2017-11-10T18:35:58.504Z,85.95
2017-11-10T18:38:25.893Z,86.26
2017-11-10T18:40:53.287Z,86.88
2017-11-10T18:43:20.667Z,86.53
2017-11-10T18:45:48.060Z,86.48
2017-11-10T18:48:21.082Z,85.63
2017-11-10T18:50:48.466Z,85.70
2017-11-10T18:53:15.942Z,86.10
2017-11-10T18:55:48.947Z,85.82
2017-11-10T18:58:16.328Z,86.01
2017-11-10T19:00:43.711Z,86.49
2017-11-10T19:03:11.096Z,86.66
2017-11-10T19:05:38.555Z,86.77
2017-11-10T19:08:05.939Z,86.25
2017-11-10T19:10:33.327Z,86.89
2017-11-10T19:13:00.730Z,87.20
2017-11-10T19:15:28.111Z,86.86
2017-11-10T19:17:55.535Z,86.91
2017-11-10T19:20:22.915Z,86.83
2017-11-10T19:22:50.305Z,86.97
2017-11-10T19:25:17.704Z,86.97
2017-11-10T19:27:45.091Z,87.11
2017-11-10T19:30:12.484Z,86.83
2017-11-10T19:32:39.956Z,87.13
2017-11-10T19:35:07.411Z,87.03
2017-11-10T19:37:34.795Z,86.94
2017-11-10T19:40:05.834Z,87.11
2017-11-10T19:42:33.264Z,86.97
2017-11-10T19:45:00.661Z,87.13
2017-11-10T19:47:28.076Z,87.33
2017-11-10T19:49:55.470Z,86.89
2017-11-10T19:52:22.852Z,86.52
2017-11-10T19:54:50.257Z,86.42
2017-11-10T19:57:17.633Z,85.72
2017-11-10T19:59:45.044Z,85.39
2017-11-10T20:02:12.424Z,85.16
2017-11-10T20:04:39.808Z,84.64
2017-11-10T20:07:07.188Z,84.69
2017-11-10T20:09:34.575Z,84.60
2017-11-10T20:12:02.021Z,84.91
2017-11-10T20:14:29.408Z,85.09
2017-11-10T20:16:56.835Z,85.28
2017-11-10T20:19:24.228Z,85.08
2017-11-10T20:21:51.620Z,85.14
2017-11-10T20:24:18.999Z,84.98
2017-11-10T20:26:46.395Z,85.08
2017-11-10T20:29:13.775Z,85.38
2017-11-10T20:31:41.164Z,85.57
2017-11-10T20:34:08.548Z,85.81
2017-11-10T20:36:36.144Z,86.19
2017-11-10T20:39:03.511Z,86.52
2017-11-10T20:41:30.975Z,86.76
2017-11-10T20:43:58.364Z,87.07
2017-11-10T20:46:25.761Z,87.46
2017-11-10T20:48:53.139Z,87.84
2017-11-10T20:51:20.534Z,87.58
2017-11-10T20:53:48.007Z,88.01
2017-11-10T20:56:15.403Z,87.85
2017-11-10T20:58:42.820Z,87.80
2017-11-10T21:01:10.209Z,87.79
2017-11-10T21:03:37.603Z,87.92
2017-11-10T21:06:04.988Z,87.87
2017-11-10T21:08:32.453Z,87.76
2017-11-10T21:10:59.823Z,87.52
2017-11-10T21:13:27.226Z,87.62
2017-11-10T21:15:54.604Z,87.44
2017-11-10T21:18:22.059Z,87.49
2017-11-10T21:20:49.444Z,87.78
2017-11-10T21:23:16.848Z,87.46
2017-11-10T21:25:44.229Z,87.17
2017-11-10T21:28:11.620Z,87.55
2017-11-10T21:30:39.061Z,86.97
2017-11-10T21:33:06.460Z,87.61
2017-11-10T21:35:33.851Z,87.38
2017-11-10T21:38:01.303Z,87.46
2017-11-10T21:40:28.759Z,87.25
2017-11-10T21:42:56.220Z,87.27
2017-11-10T21:45:23.692Z,86.42
2017-11-10T21:47:51.098Z,86.57
2017-11-10T21:50:18.588Z,86.44
2017-11-10T21:52:45.987Z,86.38
2017-11-10T21:55:13.376Z,85.93
2017-11-10T21:57:40.766Z,86.13
2017-11-10T22:00:08.236Z,86.08
2017-11-10T22:02:35.611Z,86.69
2017-11-10T22:05:03.015Z,86.52
2017-11-10T22:07:30.412Z,86.65
2017-11-10T22:09:57.832Z,86.27
2017-11-10T22:12:25.287Z,86.11
2017-11-10T22:14:52.678Z,85.78
2017-11-10T22:17:20.061Z,85.87
2017-11-10T22:19:47.549Z,85.93
2017-11-10T22:22:14.944Z,86.29
2017-11-10T22:24:42.364Z,86.35
2017-11-10T22:27:09.743Z,86.38
2017-11-10T22:29:37.167Z,86.51
2017-11-10T22:32:04.557Z,86.26
2017-11-10T22:34:31.999Z,86.20
2017-11-10T22:36:59.371Z,86.12
2017-11-10T22:39:26.764Z,86.54
2017-11-10T22:41:54.144Z,86.16
2017-11-10T22:44:21.536Z,86.29
2017-11-10T22:46:48.931Z,86.20
2017-11-10T22:49:16.407Z,86.50
2017-11-10T22:51:43.804Z,86.67
2017-11-10T22:54:11.193Z,86.81
2017-11-10T22:56:38.579Z,87.04
2017-11-10T22:59:06.036Z,87.50
2017-11-10T23:01:33.491Z,88.17
2017-11-10T23:04:00.882Z,88.14
2017-11-10T23:06:28.271Z,88.17
2017-11-10T23:08:55.760Z,88.32
2017-11-10T23:11:23.151Z,88.65
2017-11-10T23:13:50.538Z,88.81
2017-11-10T23:16:17.920Z,88.80
2017-11-10T23:18:45.400Z,88.46
2017-11-10T23:21:12.800Z,88.40
2017-11-10T23:23:40.175Z,88.40
2017-11-10T23:26:07.560Z,88.66
2017-11-10T23:28:34.949Z,88.40
2017-11-10T23:31:02.356Z,88.79
2017-11-10T23:33:29.804Z,88.79
2017-11-10T23:35:57.201Z,88.97
2017-11-10T23:38:24.586Z,88.97
2017-11-10T23:40:51.972Z,88.89
2017-11-10T23:43:19.431Z,88.70
2017-11-10T23:45:46.896Z,88.82
2017-11-10T23:48:14.344Z,88.71
2017-11-10T23:50:41.733Z,88.71
2017-11-10T23:53:09.147Z,88.93
2017-11-10T23:55:36.540Z,88.77
2017-11-10T23:58:03.924Z,88.98
